Terminal Aerodrome Forecast
Issued by NWS

Home | Current Version | Previous Version | Text Only | Print | Product List | Glossary On
Versions: 1 2 3 4 5 6 7 8 9 10 11 12 13 14 15 16 17 18 19 20 21 22 23 24 25 26 27 28
000
FTUS44 KHGX 262328
TAFUTS
TAF
KUTS 262328Z 2700/2724 15008KT P6SM FEW035 SCT250
     FM270300 17010KT P6SM BKN020
     FM270700 18010KT P6SM OVC012
     FM271600 20008KT P6SM BKN025
     FM271800 20006KT P6SM BKN035=

USA.gov is the U.S. government's official web portal to all federal, state and local government web resources and services.